Time;durP1;ratioP1;P1;durP2;ratioP2;P2;SDS_P1;SDS_P2;PMS_P1;PMS_P2;Temp;Humidity;BMP_temperature;BMP_pressure;BME280_temperature;BME280_humidity;BME280_pressure;Samples;Min_cycle;Max_cycle;Signal;HPM_P1;HPM_P2
2022/05/12 00:00:53;;;;;;;3.28;0.90;;;22.30;73.40;;;;;;6255159;23;20024;-53
2022/05/12 00:03:19;;;;;;;1.35;0.50;;;22.30;63.90;;;;;;6245206;22;20388;-53
2022/05/12 00:05:45;;;;;;;1.35;0.50;;;22.50;52.40;;;;;;6254532;23;20087;-54
2022/05/12 00:08:11;;;;;;;2.47;0.77;;;22.00;62.50;;;;;;6255093;23;19997;-44
2022/05/12 00:10:38;;;;;;;0.80;0.47;;;22.40;52.90;;;;;;6255028;23;20007;-44
2022/05/12 00:13:05;;;;;;;2.25;1.02;;;22.70;87.00;;;;;;6255010;23;19996;-44
2022/05/12 00:15:33;;;;;;;2.92;0.57;;;22.50;86.80;;;;;;6245244;23;20408;-44
2022/05/12 00:18:02;;;;;;;2.70;0.73;;;22.40;52.70;;;;;;6244801;23;20000;-45
2022/05/12 00:20:28;;;;;;;2.45;0.65;;;22.10;86.40;;;;;;6217902;23;20436;-44
2022/05/12 00:23:14;;;;;;;1.27;0.65;;;22.20;86.60;;;;;;6254980;23;20075;-45
2022/05/12 00:25:42;;;;;;;0.82;0.40;;;22.30;86.60;;;;;;6255199;23;20008;-44
2022/05/12 00:28:08;;;;;;;1.85;0.50;;;22.00;86.60;;;;;;6245166;23;19992;-44
2022/05/12 00:30:34;;;;;;;1.95;0.60;;;22.50;87.00;;;;;;6245058;23;20312;-45
2022/05/12 00:33:00;;;;;;;1.98;0.80;;;22.40;87.00;;;;;;6254934;23;20060;-44
2022/05/12 00:35:26;;;;;;;1.90;0.47;;;22.60;86.60;;;;;;6255024;23;19996;-44
2022/05/12 00:37:51;;;;;;;1.30;0.40;;;22.60;87.20;;;;;;6254968;23;20019;-45
2022/05/12 00:40:18;;;;;;;1.73;0.55;;;22.50;87.00;;;;;;6254933;23;19992;-45
2022/05/12 00:43:01;;;;;;;2.22;0.52;;;22.40;50.90;;;;;;6254888;23;20024;-45
2022/05/12 00:45:29;;;;;;;3.30;0.50;;;22.40;53.30;;;;;;6255062;23;20019;-45
2022/05/12 00:47:56;;;;;;;3.55;0.60;;;20.20;52.40;;;;;;6254923;23;20054;-45
2022/05/12 00:50:29;;;;;;;0.98;0.60;;;22.20;86.90;;;;;;6254850;23;20439;-45
2022/05/12 00:52:57;;;;;;;2.25;0.63;;;22.30;53.30;;;;;;6254862;23;20422;-45
2022/05/12 00:55:35;;;;;;;0.82;0.40;;;22.50;86.90;;;;;;6254849;23;20394;-45
2022/05/12 00:58:05;;;;;;;0.52;0.35;;;22.30;53.40;;;;;;6254963;23;20011;-45
2022/05/12 01:00:31;;;;;;;0.77;0.30;;;;;;;;;;6254981;23;20007;-45
2022/05/12 01:03:00;;;;;;;1.45;0.47;;;22.20;53.50;;;;;;6254827;22;19996;-44
2022/05/12 01:05:27;;;;;;;1.48;0.40;;;;;;;;;;6254780;23;20012;-45
2022/05/12 01:07:55;;;;;;;1.83;0.45;;;;;;;;;;6254835;23;19996;-45
2022/05/12 01:10:21;;;;;;;0.90;0.50;;;22.30;52.90;;;;;;6244829;23;20091;-45
2022/05/12 01:12:51;;;;;;;1.10;0.40;;;22.40;78.80;;;;;;6254773;23;19996;-45
2022/05/12 01:15:19;;;;;;;2.28;0.52;;;22.40;54.30;;;;;;6254887;23;20000;-45
2022/05/12 01:17:46;;;;;;;1.40;0.52;;;22.70;54.10;;;;;;6245892;23;20042;-45
2022/05/12 01:20:12;;;;;;;1.60;0.57;;;21.70;86.90;;;;;;6256791;23;20035;-45
2022/05/12 01:22:59;;;;;;;1.25;0.40;;;21.80;86.90;;;;;;6256673;23;19996;-45
2022/05/12 01:25:29;;;;;;;1.05;0.40;;;22.30;85.10;;;;;;6256617;23;19999;-45
2022/05/12 01:27:55;;;;;;;1.55;0.30;;;22.40;87.40;;;;;;6256684;23;20007;-45
2022/05/12 01:30:22;;;;;;;1.42;0.60;;;22.20;53.50;;;;;;6256573;23;19999;-45
2022/05/12 01:32:48;;;;;;;1.30;0.50;;;22.20;87.30;;;;;;6246431;23;20135;-45
2022/05/12 01:35:16;;;;;;;1.33;0.28;;;22.10;87.40;;;;;;6256581;23;20027;-45
2022/05/12 01:37:44;;;;;;;1.00;0.32;;;21.70;86.90;;;;;;6256495;23;20020;-45
2022/05/12 01:40:13;;;;;;;1.70;0.40;;;22.20;87.10;;;;;;6246410;23;20050;-46
2022/05/12 01:42:39;;;;;;;1.90;0.63;;;22.00;68.60;;;;;;6256609;23;20332;-45
2022/05/12 01:45:06;;;;;;;1.98;0.47;;;22.20;53.50;;;;;;6256481;23;20000;-44
2022/05/12 01:47:33;;;;;;;0.75;0.30;;;22.30;87.20;;;;;;6256523;23;20038;-46
2022/05/12 01:49:59;;;;;;;0.82;0.52;;;;;;;;;;6256373;23;20000;-46
2022/05/12 01:52:25;;;;;;;1.30;0.40;;;;;;;;;;6256261;23;20008;-45
2022/05/12 01:54:52;;;;;;;0.90;0.38;;;;;;;;;;6256349;23;20000;-46
2022/05/12 01:57:18;;;;;;;1.23;0.40;;;22.00;87.30;;;;;;6256417;23;20007;-46
2022/05/12 01:59:44;;;;;;;1.13;0.50;;;22.30;87.50;;;;;;6256456;23;20020;-54
2022/05/12 02:02:09;;;;;;;0.95;0.45;;;21.70;87.20;;;;;;6256254;22;20000;-55
2022/05/12 02:04:35;;;;;;;1.58;0.70;;;;;;;;;;6255972;23;20363;-54
2022/05/12 02:07:01;;;;;;;0.52;0.30;;;21.90;75.00;;;;;;6256216;23;20022;-53
2022/05/12 02:09:27;;;;;;;1.38;0.55;;;;;;;;;;6256152;23;20062;-54
2022/05/12 02:11:53;;;;;;;1.30;0.32;;;;;;;;;;6256090;23;20031;-55
2022/05/12 02:14:19;;;;;;;0.30;0.30;;;;;;;;;;6256094;23;19996;-55
2022/05/12 02:16:45;;;;;;;1.27;0.52;;;;;;;;;;6256202;23;20458;-51
2022/05/12 02:19:11;;;;;;;1.48;0.43;;;;;;;;;;6256102;23;20061;-54
2022/05/12 02:21:37;;;;;;;0.95;0.47;;;22.00;87.50;;;;;;6256043;23;19996;-52
2022/05/12 02:24:03;;;;;;;1.73;0.70;;;23.80;54.70;;;;;;6256061;23;20003;-52
2022/05/12 02:26:30;;;;;;;2.53;0.63;;;22.10;52.50;;;;;;6256105;23;20034;-54
2022/05/12 02:28:55;;;;;;;1.98;0.70;;;22.10;87.40;;;;;;6255494;23;20297;-54
2022/05/12 02:31:21;;;;;;;1.23;0.70;;;;;;;;;;6255920;23;20051;-54
2022/05/12 02:33:50;;;;;;;1.60;0.70;;;;;;;;;;6246090;23;19996;-54
2022/05/12 02:36:15;;;;;;;0.63;0.30;;;22.00;87.50;;;;;;6255938;23;20074;-53
2022/05/12 02:38:41;;;;;;;1.13;0.60;;;21.90;82.70;;;;;;6256160;23;20423;-54
2022/05/12 02:41:07;;;;;;;2.63;0.57;;;21.90;52.90;;;;;;6255895;23;20000;-53
2022/05/12 02:43:33;;;;;;;1.33;0.65;;;22.00;81.40;;;;;;6246039;23;20423;-54
2022/05/12 02:46:01;;;;;;;1.50;0.45;;;21.90;53.70;;;;;;6245942;23;20030;-54
2022/05/12 02:48:36;;;;;;;1.58;0.60;;;22.00;76.10;;;;;;6255799;23;19996;-52
2022/05/12 02:51:02;;;;;;;1.10;0.30;;;22.00;87.40;;;;;;6255760;23;20004;-51
2022/05/12 02:53:28;;;;;;;0.88;0.47;;;22.10;70.90;;;;;;6255870;23;19992;-44
2022/05/12 02:55:54;;;;;;;1.50;0.52;;;22.00;87.70;;;;;;6255852;23;20008;-45
2022/05/12 02:58:21;;;;;;;1.40;0.40;;;21.90;87.70;;;;;;6255753;23;20427;-45
2022/05/12 03:00:47;;;;;;;1.92;0.30;;;22.00;87.70;;;;;;6256066;23;20000;-46
2022/05/12 03:03:13;;;;;;;1.38;0.63;;;;;;;;;;6245785;22;20020;-45
2022/05/12 03:05:39;;;;;;;1.50;0.40;;;22.40;56.40;;;;;;6255513;23;20087;-45
2022/05/12 03:08:06;;;;;;;2.78;0.65;;;22.00;82.70;;;;;;6255690;23;20112;-45
2022/05/12 03:10:32;;;;;;;2.40;0.60;;;21.90;54.00;;;;;;6255589;23;20008;-44
2022/05/12 03:12:58;;;;;;;2.05;0.60;;;21.90;87.80;;;;;;6255613;23;19996;-45
2022/05/12 03:15:23;;;;;;;2.92;0.70;;;22.10;87.90;;;;;;6255619;23;19992;-45
2022/05/12 03:17:49;;;;;;;1.92;0.60;;;21.80;87.70;;;;;;6255566;23;20000;-45
2022/05/12 03:20:19;;;;;;;1.10;0.30;;;21.80;53.90;;;;;;6255529;23;19996;-45
2022/05/12 03:22:45;;;;;;;2.47;0.75;;;21.60;57.10;;;;;;6255483;23;19992;-44
2022/05/12 03:25:12;;;;;;;1.23;0.50;;;21.80;53.90;;;;;;6255481;23;20004;-44
2022/05/12 03:27:40;;;;;;;1.30;0.43;;;21.40;84.00;;;;;;6255474;23;19999;-45
2022/05/12 03:30:07;;;;;;;1.40;0.63;;;21.90;88.00;;;;;;6255509;23;20027;-44
2022/05/12 03:32:33;;;;;;;1.33;0.40;;;22.00;87.90;;;;;;6218162;23;20450;-45
2022/05/12 03:34:59;;;;;;;1.70;0.80;;;21.60;87.60;;;;;;6245567;23;20009;-45
2022/05/12 03:37:25;;;;;;;3.90;0.85;;;;;;;;;;6255358;23;20000;-45
2022/05/12 03:39:51;;;;;;;2.92;0.60;;;21.70;55.20;;;;;;6255251;23;20448;-45
2022/05/12 03:42:18;;;;;;;3.58;0.80;;;;;;;;;;6255368;23;20355;-44
2022/05/12 03:44:47;;;;;;;1.92;0.60;;;21.90;87.80;;;;;;6245406;23;20304;-44
2022/05/12 03:47:32;;;;;;;1.25;0.63;;;21.60;59.20;;;;;;6255252;23;19996;-45
2022/05/12 03:50:12;;;;;;;2.08;0.60;;;21.80;87.70;;;;;;6255335;23;20000;-45
2022/05/12 03:52:38;;;;;;;5.20;0.93;;;22.00;87.90;;;;;;6245314;23;20008;-45
2022/05/12 03:55:07;;;;;;;1.88;0.68;;;21.70;54.00;;;;;;6245317;23;20000;-44
2022/05/12 03:57:33;;;;;;;2.30;0.85;;;21.70;52.80;;;;;;6255102;23;20000;-44
2022/05/12 04:00:00;;;;;;;1.80;0.75;;;;;;;;;;6245230;23;19998;-45
2022/05/12 04:02:25;;;;;;;2.10;0.82;;;21.70;88.00;;;;;;6255051;22;20046;-45
2022/05/12 04:04:51;;;;;;;1.35;0.75;;;21.50;58.90;;;;;;6247123;22;20012;-45
2022/05/12 04:07:20;;;;;;;2.55;0.88;;;21.60;54.20;;;;;;6245342;23;20000;-45
2022/05/12 04:09:46;;;;;;;4.00;0.73;;;21.70;87.80;;;;;;6255207;23;20404;-45
2022/05/12 04:12:11;;;;;;;1.83;0.73;;;21.80;87.90;;;;;;6254950;23;20435;-45
2022/05/12 04:14:38;;;;;;;2.92;1.02;;;21.60;87.90;;;;;;6255050;23;19992;-46
2022/05/12 04:17:05;;;;;;;3.13;0.70;;;21.70;87.80;;;;;;6255065;23;20467;-45
2022/05/12 04:19:31;;;;;;;2.85;0.77;;;;;;;;;;6255045;23;19996;-45
2022/05/12 04:21:57;;;;;;;2.22;0.73;;;;;;;;;;6254973;23;20394;-44
2022/05/12 04:24:23;;;;;;;1.60;0.68;;;;;;;;;;6255089;23;20023;-45
2022/05/12 04:26:49;;;;;;;1.05;0.63;;;;;;;;;;6255114;23;20431;-45
2022/05/12 04:29:15;;;;;;;1.85;0.63;;;21.70;52.60;;;;;;6255360;23;19992;-46
2022/05/12 04:31:41;;;;;;;2.10;0.60;;;21.30;69.20;;;;;;6254890;23;20011;-45
2022/05/12 04:36:52;;;;;;;0.60;0.50;;;21.80;88.20;;;;;;6255098;23;20386;-47
2022/05/12 04:39:18;;;;;;;1.67;0.60;;;21.60;88.30;;;;;;6254844;23;20022;-44
2022/05/12 04:41:45;;;;;;;1.90;0.60;;;21.70;88.10;;;;;;6245145;23;20000;-45
2022/05/12 04:44:12;;;;;;;2.83;0.80;;;21.60;54.00;;;;;;6255122;23;19992;-45
2022/05/12 04:46:39;;;;;;;2.10;0.63;;;21.50;88.10;;;;;;6245160;23;20391;-44
2022/05/12 04:49:06;;;;;;;1.15;0.52;;;21.10;87.90;;;;;;6254898;23;19993;-45
2022/05/12 04:51:32;;;;;;;1.92;0.77;;;21.50;88.30;;;;;;6255264;23;20062;-45
2022/05/12 04:54:01;;;;;;;0.93;0.80;;;21.60;88.20;;;;;;6256949;23;20000;-44
2022/05/12 04:56:27;;;;;;;2.00;0.70;;;21.60;54.00;;;;;;6256957;23;20070;-45
2022/05/12 04:58:53;;;;;;;2.90;0.70;;;;;;;;;;6256910;23;20026;-45
2022/05/12 05:01:19;;;;;;;0.60;0.50;;;;;;;;;;6256803;22;20001;-45
2022/05/12 05:03:45;;;;;;;2.72;0.75;;;;;;;;;;6247004;23;19996;-44
2022/05/12 05:06:11;;;;;;;1.77;0.63;;;21.60;54.30;;;;;;6256620;23;20350;-45
2022/05/12 05:08:37;;;;;;;2.58;0.70;;;;;;;;;;6256746;23;20051;-45
2022/05/12 05:11:06;;;;;;;1.55;0.40;;;;;;;;;;6256644;23;20012;-45
2022/05/12 05:13:32;;;;;;;2.20;0.50;;;21.60;73.70;;;;;;6256841;23;20031;-44
2022/05/12 05:15:58;;;;;;;2.05;0.70;;;21.70;88.20;;;;;;6256798;23;20018;-44
2022/05/12 05:18:24;;;;;;;2.38;0.70;;;;;;;;;;6256559;23;20339;-46
2022/05/12 05:20:50;;;;;;;1.23;0.52;;;21.50;88.30;;;;;;6256504;23;20309;-44
2022/05/12 05:23:18;;;;;;;1.90;0.70;;;21.40;88.10;;;;;;6256329;23;19996;-44
2022/05/12 05:25:43;;;;;;;2.80;0.47;;;21.70;87.70;;;;;;6246173;23;19997;-44
2022/05/12 05:28:10;;;;;;;2.45;0.70;;;21.50;63.10;;;;;;6256350;23;20000;-45
2022/05/12 05:30:37;;;;;;;0.95;0.50;;;;;;;;;;6246049;23;20427;-45
2022/05/12 05:33:02;;;;;;;1.42;0.70;;;21.30;88.00;;;;;;6256323;23;20000;-45
2022/05/12 05:35:28;;;;;;;2.88;0.63;;;;;;;;;;6256307;23;20000;-44
2022/05/12 05:37:54;;;;;;;3.10;0.70;;;21.70;88.40;;;;;;6256098;23;20419;-45
2022/05/12 05:40:31;;;;;;;2.05;0.65;;;21.50;54.50;;;;;;6256090;23;20004;-45
2022/05/12 05:42:58;;;;;;;3.42;0.57;;;21.70;75.60;;;;;;6245976;23;20073;-45
2022/05/12 05:45:25;;;;;;;1.67;0.65;;;21.60;88.10;;;;;;6245899;23;20023;-45
2022/05/12 05:47:54;;;;;;;1.45;0.50;;;21.60;88.60;;;;;;6245962;23;20000;-45
2022/05/12 05:50:23;;;;;;;3.00;1.03;;;21.70;88.60;;;;;;6255958;23;20058;-46
2022/05/12 05:55:33;;;;;;;4.53;0.77;;;;;;;;;;6255917;23;20007;-45
2022/05/12 05:58:00;;;;;;;2.25;0.93;;;21.70;76.30;;;;;;6255703;23;20000;-45
2022/05/12 06:00:27;;;;;;;1.02;0.43;;;21.60;75.60;;;;;;6255987;23;20439;-45
2022/05/12 06:02:54;;;;;;;0.98;0.60;;;21.70;81.40;;;;;;6244701;22;20005;-45
2022/05/12 06:05:21;;;;;;;1.95;0.52;;;21.70;83.80;;;;;;6255343;23;20012;-44
2022/05/12 06:07:47;;;;;;;1.35;0.38;;;;;;;;;;6255648;23;20332;-44
2022/05/12 06:10:13;;;;;;;2.92;0.47;;;;;;;;;;6255715;23;20028;-45
2022/05/12 06:12:40;;;;;;;4.35;0.70;;;;;;;;;;6245613;23;20012;-44
2022/05/12 06:15:07;;;;;;;6.50;0.60;;;21.40;88.70;;;;;;6246049;23;20000;-45
2022/05/12 06:17:34;;;;;;;3.55;0.60;;;21.60;54.90;;;;;;6255882;23;20007;-44
2022/05/12 06:20:00;;;;;;;1.80;0.70;;;21.40;88.40;;;;;;6255843;23;20319;-45
2022/05/12 06:22:26;;;;;;;2.83;0.77;;;21.50;62.70;;;;;;6255749;23;19996;-44
2022/05/12 06:24:52;;;;;;;2.58;0.68;;;21.60;88.60;;;;;;6255697;23;20079;-44
2022/05/12 06:27:22;;;;;;;2.55;0.52;;;21.80;88.60;;;;;;6255792;23;20501;-44
2022/05/12 06:29:48;;;;;;;5.60;0.82;;;21.60;88.70;;;;;;6246239;23;20067;-44
2022/05/12 06:32:15;;;;;;;3.45;0.80;;;21.90;53.80;;;;;;6255855;23;20058;-45
2022/05/12 06:34:46;;;;;;;4.65;0.95;;;21.60;88.90;;;;;;6246141;23;20004;-44
2022/05/12 06:37:12;;;;;;;2.05;0.60;;;21.60;89.00;;;;;;6255965;23;20439;-46
2022/05/12 06:39:38;;;;;;;1.42;0.82;;;21.70;89.30;;;;;;6255717;23;20046;-47
2022/05/12 06:42:05;;;;;;;4.20;1.02;;;21.20;55.40;;;;;;6255690;23;19996;-46
2022/05/12 06:44:30;;;;;;;4.13;0.80;;;21.60;89.30;;;;;;6255536;23;20069;-45
2022/05/12 06:46:56;;;;;;;6.85;1.00;;;21.90;89.50;;;;;;6255829;23;20457;-44
2022/05/12 06:49:22;;;;;;;6.13;0.88;;;21.90;89.70;;;;;;6245819;23;20007;-44
2022/05/12 06:51:48;;;;;;;2.75;0.98;;;21.60;89.40;;;;;;6255708;23;20335;-56
2022/05/12 06:54:14;;;;;;;6.30;0.95;;;21.10;58.00;;;;;;6255740;23;20501;-56
2022/05/12 06:56:41;;;;;;;7.38;1.02;;;;;;;;;;6255652;23;20000;-56
2022/05/12 06:59:07;;;;;;;5.13;1.15;;;;;;;;;;6255639;23;20399;-57
2022/05/12 07:01:33;;;;;;;6.57;0.77;;;21.40;70.00;;;;;;6245145;22;20000;-55
2022/05/12 07:04:00;;;;;;;2.17;0.82;;;;;;;;;;6255577;23;20003;-55
2022/05/12 07:06:26;;;;;;;4.07;0.90;;;21.40;89.20;;;;;;6255411;23;20131;-56
2022/05/12 07:08:52;;;;;;;5.43;0.70;;;22.00;89.30;;;;;;6255538;23;19996;-45
2022/05/12 07:11:17;;;;;;;3.58;0.80;;;21.60;89.00;;;;;;6255649;23;20367;-45
2022/05/12 07:13:43;;;;;;;8.73;0.80;;;21.70;85.60;;;;;;6248584;23;20007;-44
2022/05/12 07:16:09;;;;;;;1.23;0.60;;;;;;;;;;6255340;23;20071;-45
2022/05/12 07:18:36;;;;;;;3.17;0.88;;;22.00;55.00;;;;;;6255465;23;20571;-45
2022/05/12 07:26:40;;;;;;;1.65;0.55;;;22.00;88.70;;;;;;6255447;23;20018;-44
2022/05/12 07:29:17;;;;;;;6.70;1.10;;;22.10;81.40;;;;;;6246019;23;19996;-45
2022/05/12 07:31:43;;;;;;;0.88;0.50;;;22.00;88.40;;;;;;6228462;23;20459;-45
2022/05/12 07:34:09;;;;;;;2.17;0.65;;;21.80;88.30;;;;;;6255412;23;20432;-45
2022/05/12 07:36:38;;;;;;;2.05;0.98;;;21.80;54.40;;;;;;6255281;23;20003;-45
2022/05/12 07:39:05;;;;;;;2.13;0.82;;;21.90;88.20;;;;;;6245455;23;20034;-45
2022/05/12 07:41:32;;;;;;;4.03;0.90;;;21.90;53.80;;;;;;6255242;23;20004;-45
2022/05/12 07:43:58;;;;;;;1.50;0.40;;;;;;;;;;6244946;23;19996;-45
2022/05/12 07:46:29;;;;;;;4.45;0.82;;;21.80;88.00;;;;;;6255371;23;20034;-45
2022/05/12 07:48:55;;;;;;;2.90;0.85;;;22.00;53.60;;;;;;6255144;23;19999;-45
2022/05/12 07:51:21;;;;;;;2.10;0.70;;;21.50;71.50;;;;;;6255050;23;20038;-46
2022/05/12 07:53:49;;;;;;;0.77;0.60;;;21.90;54.00;;;;;;6255141;23;19992;-45
2022/05/12 07:56:17;;;;;;;2.25;0.73;;;22.00;54.10;;;;;;6255108;23;20000;-45
2022/05/12 07:58:44;;;;;;;4.18;0.80;;;22.00;53.90;;;;;;6245194;23;20078;-45
2022/05/12 08:01:12;;;;;;;1.52;0.43;;;21.90;87.90;;;;;;6254982;22;19996;-46
2022/05/12 08:03:39;;;;;;;1.58;0.70;;;21.90;87.70;;;;;;6255054;23;20000;-45
2022/05/12 08:06:07;;;;;;;2.97;1.17;;;22.20;87.60;;;;;;6244746;23;20495;-57
2022/05/12 08:08:33;;;;;;;1.10;0.45;;;;;;;;;;6255167;23;19996;-56
2022/05/12 08:10:59;;;;;;;1.45;0.43;;;;;;;;;;6245078;23;20019;-56
2022/05/12 08:13:25;;;;;;;1.35;0.50;;;;;;;;;;6245236;23;19996;-57
2022/05/12 08:15:53;;;;;;;1.13;0.43;;;20.50;53.00;;;;;;6255082;23;20515;-56
2022/05/12 08:18:21;;;;;;;1.00;0.57;;;22.20;53.70;;;;;;6255079;23;20325;-56
2022/05/12 08:20:47;;;;;;;2.10;0.60;;;;;;;;;;6245143;23;20328;-55
2022/05/12 08:23:13;;;;;;;2.03;0.50;;;;;;;;;;6255003;23;20000;-55
2022/05/12 08:25:40;;;;;;;1.77;0.50;;;21.80;55.20;;;;;;6254917;23;20000;-45
2022/05/12 08:28:06;;;;;;;1.92;0.90;;;22.40;87.70;;;;;;6244542;23;20002;-45
2022/05/12 08:30:32;;;;;;;1.65;0.50;;;;;;;;;;6254909;23;20035;-45
2022/05/12 08:32:58;;;;;;;1.13;0.50;;;22.50;87.60;;;;;;6255280;23;20032;-45
2022/05/12 08:35:24;;;;;;;0.80;0.40;;;;;;;;;;6254973;23;19997;-45
2022/05/12 08:37:50;;;;;;;1.13;0.40;;;22.20;87.40;;;;;;6254883;23;20007;-45
2022/05/12 08:40:44;;;;;;;3.00;0.55;;;22.30;61.20;;;;;;6254867;23;19996;-44
2022/05/12 08:43:28;;;;;;;1.67;0.52;;;22.50;87.10;;;;;;6255012;23;19996;-45
2022/05/12 08:46:01;;;;;;;0.93;0.32;;;22.50;87.10;;;;;;6254893;23;20020;-45
2022/05/12 08:48:27;;;;;;;1.77;0.50;;;;;;;;;;6254866;23;20008;-45
2022/05/12 08:50:55;;;;;;;0.82;0.60;;;22.50;53.40;;;;;;6254630;23;20008;-45
2022/05/12 08:53:25;;;;;;;3.00;0.60;;;22.50;53.40;;;;;;6244596;23;20076;-45
2022/05/12 08:55:54;;;;;;;2.22;0.70;;;22.10;82.10;;;;;;6245002;23;20370;-45
2022/05/12 08:58:33;;;;;;;0.80;0.40;;;22.70;87.20;;;;;;6255585;23;19992;-44
2022/05/12 09:01:20;;;;;;;1.77;0.80;;;22.60;50.70;;;;;;6254932;23;20435;-45
2022/05/12 09:04:26;;;;;;;0.85;0.40;;;22.60;56.00;;;;;;6254875;23;19996;-45
2022/05/12 09:07:10;;;;;;;0.77;0.45;;;22.70;86.70;;;;;;6254544;23;20012;-45
2022/05/12 09:09:57;;;;;;;1.08;0.50;;;23.00;70.00;;;;;;6254740;23;20336;-45
2022/05/12 09:12:51;;;;;;;0.60;0.40;;;22.80;86.30;;;;;;6254672;23;20073;-45
2022/05/12 09:15:38;;;;;;;0.68;0.30;;;22.80;52.70;;;;;;6254675;23;20019;-45
2022/05/12 09:18:13;;;;;;;1.40;0.50;;;22.80;86.40;;;;;;6244351;23;20003;-46
2022/05/12 09:20:39;;;;;;;1.77;0.30;;;22.80;66.10;;;;;;6254867;23;19996;-45
2022/05/12 09:23:06;;;;;;;0.60;0.30;;;22.80;52.90;;;;;;6254542;23;20003;-45
2022/05/12 09:25:44;;;;;;;0.73;0.38;;;23.10;86.20;;;;;;6254544;23;20004;-45
2022/05/12 09:28:39;;;;;;;1.92;0.60;;;23.30;85.80;;;;;;6249878;23;19997;-45
2022/05/12 09:31:17;;;;;;;1.83;0.55;;;22.70;69.10;;;;;;6254423;23;20070;-45
2022/05/12 09:33:45;;;;;;;0.40;0.20;;;23.20;52.40;;;;;;6254501;23;20054;-45
2022/05/12 09:36:26;;;;;;;0.55;0.30;;;23.30;77.30;;;;;;6254644;23;20004;-45
2022/05/12 09:38:54;;;;;;;1.52;0.40;;;23.40;85.60;;;;;;6256043;23;20003;-45
2022/05/12 09:41:36;;;;;;;1.48;0.65;;;23.20;68.30;;;;;;6246572;23;20004;-45
2022/05/12 09:44:21;;;;;;;0.77;0.40;;;23.30;84.10;;;;;;6246652;23;20326;-45
2022/05/12 09:47:00;;;;;;;2.28;0.50;;;23.50;66.70;;;;;;6256357;23;20027;-45
2022/05/12 09:49:38;;;;;;;1.15;0.30;;;22.80;84.40;;;;;;6246476;23;20001;-45
2022/05/12 09:52:32;;;;;;;0.43;0.28;;;23.30;85.10;;;;;;6246402;23;20074;-45
2022/05/12 09:55:21;;;;;;;0.22;0.20;;;23.40;85.00;;;;;;6256125;23;20450;-45
2022/05/12 09:58:04;;;;;;;0.87;0.40;;;23.50;72.10;;;;;;6256504;23;20069;-45
2022/05/12 10:00:40;;;;;;;0.38;0.20;;;23.60;85.20;;;;;;6256638;23;19997;-45
2022/05/12 10:09:08;;;;;;;1.42;0.30;;;23.30;75.50;;;;;;6246004;23;20438;-46
2022/05/12 10:11:53;;;;;;;1.50;0.55;;;23.70;85.40;;;;;;6256094;23;20008;-45
2022/05/12 10:14:44;;;;;;;1.17;0.40;;;23.50;51.50;;;;;;6246309;23;20035;-46
2022/05/12 10:17:17;;;;;;;0.60;0.30;;;23.60;85.00;;;;;;6198257;23;19996;-45
2022/05/12 10:19:45;;;;;;;2.13;0.35;;;23.40;51.50;;;;;;6256140;23;20103;-45
2022/05/12 10:22:16;;;;;;;0.68;0.20;;;23.30;65.40;;;;;;6246186;23;20023;-45
2022/05/12 10:24:50;;;;;;;1.65;0.50;;;23.70;85.00;;;;;;6256092;23;19996;-46
2022/05/12 10:27:52;;;;;;;0.40;0.30;;;23.40;84.80;;;;;;6246190;23;20004;-45
2022/05/12 10:30:37;;;;;;;0.73;0.40;;;23.50;48.90;;;;;;6227082;23;20004;-45
2022/05/12 10:33:03;;;;;;;1.20;0.43;;;;;;;;;;6256086;23;20069;-46
2022/05/12 10:35:39;;;;;;;0.52;0.43;;;23.30;65.20;;;;;;6255960;23;20067;-45
2022/05/12 10:38:33;;;;;;;0.88;0.40;;;23.80;76.20;;;;;;6255943;23;20004;-46
2022/05/12 10:41:16;;;;;;;1.20;0.25;;;23.60;48.80;;;;;;6255976;23;19993;-45
2022/05/12 10:44:04;;;;;;;1.45;0.30;;;23.50;84.70;;;;;;6255855;23;20339;-45
2022/05/12 10:47:11;;;;;;;0.70;0.30;;;23.90;84.80;;;;;;6256269;23;20045;-46
2022/05/12 10:49:58;;;;;;;0.50;0.40;;;23.60;60.10;;;;;;6245577;23;20335;-46
2022/05/12 10:52:38;;;;;;;0.57;0.20;;;23.50;84.10;;;;;;6255822;23;20087;-46
2022/05/12 10:55:15;;;;;;;1.02;0.50;;;23.70;84.40;;;;;;6255820;23;20400;-46
2022/05/12 10:57:53;;;;;;;0.60;0.40;;;23.70;48.40;;;;;;6255814;23;20000;-46
2022/05/12 11:00:30;;;;;;;0.50;0.25;;;24.00;75.40;;;;;;6255684;23;19992;-46
2022/05/12 11:03:03;;;;;;;0.80;0.30;;;23.60;81.80;;;;;;6255628;22;20016;-46
2022/05/12 11:05:56;;;;;;;0.47;0.20;;;23.60;56.30;;;;;;6255325;23;20004;-46
2022/05/12 11:08:36;;;;;;;1.05;0.40;;;23.70;78.90;;;;;;6255560;23;20007;-46
2022/05/12 11:11:10;;;;;;;1.17;0.47;;;23.70;84.40;;;;;;6245708;23;20085;-45
2022/05/12 11:13:38;;;;;;;0.55;0.40;;;;;;;;;;6255630;23;19999;-45
2022/05/12 11:16:10;;;;;;;0.77;0.30;;;24.00;84.40;;;;;;6255816;23;20000;-46
2022/05/12 11:18:42;;;;;;;0.85;0.40;;;24.00;62.50;;;;;;6255506;23;19993;-46
2022/05/12 11:21:25;;;;;;;1.15;0.32;;;24.10;75.50;;;;;;6255514;23;20382;-46
2022/05/12 11:24:21;;;;;;;0.50;0.40;;;24.00;48.20;;;;;;6255482;23;20003;-46
2022/05/12 11:26:47;;;;;;;0.60;0.30;;;;;;;;;;6245021;23;19996;-46
2022/05/12 11:29:44;;;;;;;0.30;0.20;;;23.90;84.00;;;;;;6255093;23;20450;-46
2022/05/12 11:32:10;;;;;;;1.35;0.40;;;;;;;;;;6218216;23;20015;-46
2022/05/12 11:34:38;;;;;;;0.75;0.20;;;23.80;50.30;;;;;;6255016;23;19992;-47
2022/05/12 11:37:27;;;;;;;0.57;0.20;;;23.30;51.40;;;;;;6245016;23;20442;-45
2022/05/12 11:39:55;;;;;;;1.95;0.30;;;24.10;83.60;;;;;;6255208;23;20067;-46
2022/05/12 11:42:24;;;;;;;0.80;0.40;;;23.80;55.50;;;;;;6245344;23;20000;-46
2022/05/12 11:44:59;;;;;;;0.47;0.20;;;24.00;79.20;;;;;;6245459;23;20000;-46
2022/05/12 11:47:49;;;;;;;1.83;0.35;;;23.70;83.50;;;;;;6255431;23;19992;-46
2022/05/12 11:50:51;;;;;;;0.70;0.15;;;23.90;53.90;;;;;;6245399;23;20000;-48
2022/05/12 11:53:22;;;;;;;1.52;0.30;;;23.60;51.80;;;;;;6255262;23;20004;-46
2022/05/12 11:56:02;;;;;;;0.80;0.32;;;23.90;83.50;;;;;;6244994;23;19992;-46
2022/05/12 11:58:32;;;;;;;;;;;23.90;48.50;;;;;;6255730;23;20000;-46
2022/05/12 12:01:01;;;;;;;1.05;0.32;;;24.20;83.70;;;;;;6255159;23;19931;-47
2022/05/12 12:03:27;;;;;;;0.45;0.32;;;23.90;83.50;;;;;;6255023;22;20455;-46
2022/05/12 12:05:52;;;;;;;0.68;0.40;;;23.70;83.40;;;;;;6254626;23;20012;-47
2022/05/12 12:08:30;;;;;;;1.65;0.50;;;23.90;47.00;;;;;;6255127;23;20008;-46
2022/05/12 12:11:20;;;;;;;0.80;0.28;;;23.90;82.00;;;;;;6255002;23;20007;-46
2022/05/12 12:13:48;;;;;;;1.08;0.30;;;24.00;81.40;;;;;;6244729;23;20325;-47
2022/05/12 12:16:16;;;;;;;4.13;0.55;;;23.90;81.30;;;;;;6254939;23;20004;-47
2022/05/12 12:18:43;;;;;;;0.98;0.45;;;24.00;81.50;;;;;;6254966;23;19996;-46
2022/05/12 12:21:31;;;;;;;0.82;0.30;;;24.10;50.60;;;;;;6245083;23;20086;-46
2022/05/12 12:24:19;;;;;;;1.27;0.40;;;23.90;81.40;;;;;;6255128;23;20058;-47
2022/05/12 12:26:50;;;;;;;1.60;0.50;;;23.70;81.40;;;;;;6254185;23;20004;-46
2022/05/12 12:29:40;;;;;;;1.85;0.55;;;23.80;80.60;;;;;;6244749;23;19999;-46
2022/05/12 12:32:38;;;;;;;1.23;0.50;;;24.10;81.30;;;;;;6243843;23;20008;-47
2022/05/12 12:35:13;;;;;;;0.43;0.30;;;23.50;81.00;;;;;;6188131;23;20419;-46
2022/05/12 12:37:46;;;;;;;0.90;0.50;;;23.20;56.70;;;;;;6254950;23;20467;-47
2022/05/12 12:40:30;;;;;;;1.10;0.45;;;23.20;80.80;;;;;;6245114;23;20000;-46
2022/05/12 12:42:56;;;;;;;1.80;0.50;;;24.00;81.10;;;;;;6254885;23;19999;-46
2022/05/12 12:45:23;;;;;;;1.40;0.40;;;24.00;72.10;;;;;;6228056;23;20226;-46
2022/05/12 12:48:00;;;;;;;1.63;0.38;;;23.80;45.20;;;;;;6254840;23;19993;-45
2022/05/12 12:50:43;;;;;;;1.13;0.70;;;23.80;45.20;;;;;;6254832;23;20447;-47
2022/05/12 12:56:30;;;;;;;2.15;0.85;;;24.00;80.90;;;;;;6254842;23;20004;-47
2022/05/12 12:56:30;;;;;;;1.58;0.35;;;24.00;80.90;;;;;;6244543;23;20043;-46
2022/05/12 12:58:58;;;;;;;1.20;0.40;;;23.30;80.40;;;;;;6254887;23;20023;-46
2022/05/12 13:01:34;;;;;;;1.75;0.40;;;23.70;73.00;;;;;;6254877;22;20003;-45
2022/05/12 13:03:59;;;;;;;0.93;0.50;;;23.70;74.40;;;;;;6254936;23;20023;-48
2022/05/12 13:06:36;;;;;;;1.45;0.40;;;23.80;80.60;;;;;;6254470;23;20009;-47
2022/05/12 13:09:09;;;;;;;0.70;0.30;;;23.60;80.70;;;;;;6254878;23;20001;-47
2022/05/12 13:11:39;;;;;;;0.90;0.43;;;26.30;48.70;;;;;;6244880;23;20014;-47
2022/05/12 13:14:11;;;;;;;1.55;0.55;;;23.40;80.10;;;;;;6246640;23;20012;-47
2022/05/12 13:16:41;;;;;;;1.45;0.50;;;23.60;80.30;;;;;;6256671;23;20335;-45
2022/05/12 13:19:08;;;;;;;1.25;0.43;;;23.70;45.80;;;;;;6256915;23;19992;-45
2022/05/12 13:21:43;;;;;;;0.93;0.40;;;23.80;80.40;;;;;;6256524;23;20440;-46
2022/05/12 13:24:27;;;;;;;1.27;0.60;;;23.60;80.40;;;;;;6246886;23;20434;-46
2022/05/12 13:26:58;;;;;;;1.92;0.50;;;23.20;80.20;;;;;;6246810;23;20319;-45
2022/05/12 13:29:31;;;;;;;0.93;0.30;;;23.70;80.70;;;;;;6246788;23;20410;-46
2022/05/12 13:32:03;;;;;;;0.95;0.45;;;23.40;49.60;;;;;;6246095;23;20091;-46
2022/05/12 13:34:34;;;;;;;1.33;0.35;;;23.60;47.40;;;;;;6245991;23;20001;-46
2022/05/12 13:37:20;;;;;;;1.23;0.40;;;23.80;80.70;;;;;;6246763;23;20347;-46
2022/05/12 13:39:51;;;;;;;1.20;0.50;;;23.80;81.10;;;;;;6246649;23;20000;-47